Dirección General De Aeronáutica Civil

Dirección Meteorológica de Chile - Servicios Climáticos

Informe General de Control de Calidad de la Estación

Listado de niveles de control de calidad para algunos parámetros
Estación Isla San Felix (260007)
Fecha de Revisión de los datos :

Elementos

Registros Niveles de Control Total
Nivel 0 Nivel 1 Nivel 2 Nivel 3 Errores Porcentaje
01 Temperatura del Aire Seco 21.953 0 . 0 . 0 . 0 . 0 0.00 %
02 Temperatura de Rocío 21.957 0 . 0 . 0 . 0 . 0 0.00 %
03 Humedad Relativa del Aire 21.956 0 . 0 . 0 . 0 . 0 0.00 %
04 Temperatura Máxima PM 3.051 0 . 0 . 15 0.49 % 0 . 15 0.49 %
05 Temperatura Mínima AM 3.053 0 . 0 . 20 0.66 % 0 . 20 0.66 %
06 Viento a 10 m. de Altura 21.955 8 0.04 % 0 . 6 0.03 % 0 . 14 0.06 %
07 Agua Caida, Acumulada 6 Horas 11.393 1 0.01 % 162 1.42 % 0 . 0 . 163 1.43 %
08 Presión Atm. a Nivel de Estación (QFE) 21.956 0 . 2 0.01 % 0 . 0 . 2 0.01 %
09 Presión Atm. a Nivel Medio del Mar (QFF) 21.957 0 . 0 . 0 . 0 . 0 0.00 %
10 Tiempo Pasado Sinóptico 21.885 0 . 0 . 0 . 0 . 0 0.00 %
11 Tiempo Presente Sinóptico 21.885 0 . 0 . 0 . 0 . 0 0.00 %

Totales

193.001 . 0.0047 % . 0.0850 % . 0.0212 % . 0.0000 % 214 0.1109 %

Detalle de Errores Encontrados

Nivel Fecha del Dato Descripción Información Error Fecha Ingreso
0 2016-03-12 15:00:00 ff (Intensidad del Viento) debe ser numerico, entre 0 y 70 kt. 140 2016-03-12 18:26:00
0 2016-09-22 15:00:00 ff (Intensidad del Viento) debe ser numerico, entre 0 y 70 kt. 123 2016-09-22 18:35:00
0 2020-12-29 18:00:00 ff (Intensidad del Viento) debe ser numerico, entre 0 y 70 kt. 101 2020-12-29 17:49:00
0 2020-12-30 12:00:00 ff (Intensidad del Viento) debe ser numerico, entre 0 y 70 kt. 119 2020-12-30 12:52:00
0 2021-05-13 09:00:00 ff (Intensidad del Viento) debe ser numerico, entre 0 y 70 kt. 70.199996948242 2021-05-13 13:47:00
0 2021-11-01 15:00:00 ff (Intensidad del Viento) debe ser numerico, entre 0 y 70 kt. 87 2021-11-01 14:57:00
0 2021-11-17 18:00:00 ff (Intensidad del Viento) debe ser numerico, entre 0 y 70 kt. 150 2021-11-17 17:40:00
0 2022-02-28 03:00:00 ff (Intensidad del Viento) debe ser numerico, entre 0 y 70 kt. 97 2022-02-28 12:28:00
0 2017-11-06 12:00:00 rr < traza || rr > 200.0 mm, Fuera del rango permitido 992.0 2017-11-06 12:16:00
Errores del Nivel 9
Nivel Fecha del Dato Descripción Información Error Fecha Ingreso
1 2016-03-07 00:00:00 rrr = trazas y WW = 2 w1=2 w2=2 0.0 2016-03-07 00:35:00
1 2016-04-07 12:00:00 rrr = s/p y WW = 2 w1=6 w2=2 0.0 2016-04-07 12:03:00
1 2016-04-09 12:00:00 rrr = s/p y WW = 2 w1=8 w2=2 0.0 2016-04-09 12:11:00
1 2016-04-09 18:00:00 rrr = s/p y WW = 2 w1=8 w2=2 0.0 2016-04-09 18:14:00
1 2016-04-15 18:00:00 rrr = 1.0 y WW = 2 w1=2 w2=1 1.0 2016-04-15 18:14:00
1 2016-04-21 12:00:00 rrr = s/p y WW = 2 w1=8 w2=1 0.0 2016-04-21 12:01:00
1 2016-04-21 18:00:00 rrr = s/p y WW = 1 w1=8 w2=1 0.0 2016-04-21 20:20:00
1 2016-05-06 12:00:00 rrr = s/p y WW = 2 w1=8 w2=2 0.0 2016-05-06 12:05:00
1 2016-05-13 00:00:00 rrr = 0.2 y WW = 3 w1=1 w2=1 0.2 2016-05-13 00:33:00
1 2016-05-13 12:00:00 rrr = 2.7 y WW = 2 w1=1 w2=1 2.7 2016-05-13 11:57:00
1 2016-05-14 12:00:00 rrr = 0.4 y WW = 1 w1=1 w2=1 0.4 2016-05-14 11:51:00
1 2016-05-18 12:00:00 rrr = trazas y WW = 2 w1=0 w2=0 0.0 2016-05-18 12:06:00
1 2016-05-24 12:00:00 rrr = s/p y WW = 2 w1=8 w2=2 0.0 2016-05-24 13:20:00
1 2016-06-03 12:00:00 rrr = 0.3 y WW = 1 w1=2 w2=2 0.3 2016-06-03 12:12:00
1 2016-06-08 12:00:00 rrr = 0.2 y WW = 2 w1=1 w2=1 0.2 2016-06-08 11:57:00
1 2016-06-24 12:00:00 rrr = 1.0 y WW = 1 w1=2 w2=1 1.0 2016-06-24 12:08:00
1 2016-07-04 12:00:00 rrr = 1.8 y WW = 2 w1=1 w2=1 1.8 2016-07-04 12:00:00
1 2016-07-05 00:00:00 rrr = s/p y WW = 3 w1=8 w2=1 0.0 2016-07-04 23:51:00
1 2016-07-05 12:00:00 rrr = 0.3 y WW = 2 w1=1 w2=1 0.3 2016-07-05 11:57:00
1 2016-07-07 12:00:00 rrr = trazas y WW = 2 w1=2 w2=2 0.0 2016-07-07 12:09:00
1 2016-08-05 12:00:00 rrr = s/p y WW = 1 w1=8 w2=1 0.0 2016-08-05 11:51:00
1 2016-08-16 00:00:00 rrr = s/p y WW = 25 w1=2 w2=2 0.0 2016-08-16 00:12:00
1 2016-09-11 18:00:00 rrr = trazas y WW = 3 w1=2 w2=1 0.0 2016-09-11 17:57:00
1 2017-01-22 12:00:00 rrr = s/p y WW = 23 w1=1 w2=1 0.0 2017-01-22 11:58:00
1 2017-01-30 12:00:00 rrr = trazas y WW = 2 w1=2 w2=2 0.0 2017-01-30 12:08:00
1 2017-02-23 18:00:00 rrr = s/p y WW = 1 w1=8 w2=1 0.0 2017-02-23 18:49:00
1 2017-02-26 12:00:00 rrr = 0.2 y WW = 2 w1=2 w2=2 0.2 2017-02-26 12:06:00
1 2017-03-09 18:00:00 rrr = trazas y WW = 2 w1=1 w2=1 0.0 2017-03-09 18:10:00
1 2017-03-15 18:00:00 rrr = s/p y WW = 3 w1=8 w2=1 0.0 2017-03-15 17:53:00
1 2017-03-21 12:00:00 rrr = s/p y WW = 2 w1=8 w2=2 0.0 2017-03-21 13:37:00
1 2017-03-23 00:00:00 rrr = s/p y WW = 1 w1=8 w2=1 0.0 2017-03-23 02:53:00
1 2017-03-23 12:00:00 rrr = 1.0 y WW = 3 w1=1 w2=0 1.0 2017-03-24 02:14:00
1 2017-03-28 18:00:00 rrr = s/p y WW = 2 w1=8 w2=6 0.0 2017-03-29 03:29:00
1 2017-03-29 12:00:00 rrr = 0.1 y WW = 1 w1=1 w2=1 0.1 2017-03-29 12:56:00
1 2017-04-08 18:00:00 rrr = trazas y WW = 1 w1=2 w2=2 0.0 2017-04-08 18:12:00
1 2017-04-11 12:00:00 rrr = s/p y WW = 2 w1=8 w2=1 0.0 2017-04-11 12:32:00
1 2017-04-16 12:00:00 rrr = s/p y WW = 3 w1=8 w2=1 0.0 2017-04-16 11:52:00
1 2017-05-07 12:00:00 rrr = 4.0 y WW = 2 w1=2 w2=2 4.0 2017-05-07 12:49:00
1 2017-05-10 12:00:00 rrr = s/p y WW = 2 w1=8 w2=2 0.0 2017-05-10 12:09:00
1 2017-05-12 12:00:00 rrr = 19.0 y WW = 1 w1=1 w2=0 19.0 2017-05-12 12:26:00
1 2017-05-20 18:00:00 rrr = 2.0 y WW = 2 w1=0 w2=0 2.0 2017-05-20 17:50:00
1 2017-05-25 12:00:00 rrr = 0.4 y WW = 2 w1=0 w2=0 0.4 2017-05-25 12:16:00
1 2017-06-15 12:00:00 rrr = s/p y WW = 82 w1=8 w2=8 0.0 2017-06-16 09:29:00
1 2017-06-15 18:00:00 rrr = s/p y WW = 2 w1=8 w2=2 0.0 2017-06-16 09:26:00
1 2017-07-09 12:00:00 rrr = 1.0 y WW = 2 w1=2 w2=2 1.0 2017-07-09 12:12:00
1 2017-07-23 12:00:00 rrr = 1.0 y WW = 1 w1=2 w2=2 1.0 2017-07-23 12:11:00
1 2017-07-31 12:00:00 rrr = 1.0 y WW = 2 w1=0 w2=0 1.0 2017-07-31 12:39:00
1 2017-08-01 12:00:00 rrr = 1.0 y WW = 2 w1=0 w2=0 1.0 2017-08-01 12:25:00
1 2017-08-10 12:00:00 rrr = 0.2 y WW = 2 w1=2 w2=2 0.2 2017-08-10 12:20:00
1 2017-08-11 12:00:00 rrr = 1.0 y WW = 2 w1=0 w2=0 1.0 2017-08-11 14:16:00
1 2017-08-23 12:00:00 rrr = 0.6 y WW = 2 w1=2 w2=2 0.6 2017-08-23 13:12:00
1 2017-09-09 00:00:00 rrr = s/p y WW = 2 w1=8 w2=1 0.0 2017-09-09 00:03:00
1 2017-09-09 12:00:00 rrr = 0.6 y WW = 1 w1=1 w2=1 0.6 2017-09-09 14:20:00
1 2017-09-10 12:00:00 rrr = 0.8 y WW = 1 w1=1 w2=1 0.8 2017-09-10 14:55:00
1 2017-09-12 12:00:00 rrr = s/p y WW = 1 w1=8 w2=2 0.0 2017-09-12 12:04:00
1 2017-09-20 12:00:00 rrr = 3.0 y WW = 0 w1=1 w2=0 3.0 2017-09-20 12:46:00
1 2017-09-25 12:00:00 rrr = trazas y WW = 2 w1=2 w2=2 0.0 2017-09-25 12:23:00
1 2017-10-18 18:00:00 rrr = trazas y WW = 3 w1=1 w2=1 0.0 2017-10-18 20:17:00
1 2017-11-03 12:00:00 rrr = trazas y WW = 2 w1=1 w2=0 0.0 2017-11-03 11:47:00
1 2017-11-05 12:00:00 rrr = s/p y WW = 2 w1=5 w2=4 0.0 2017-11-05 11:40:00
1 2017-11-06 12:00:00 rrr = 992.0 y WW = 1 w1=2 w2=2 992.0 2017-11-06 12:16:00
1 2017-11-20 12:00:00 rrr = s/p y WW = 2 w1=5 w2=2 0.0 2017-11-20 11:51:00
1 2017-12-07 18:00:00 rrr = s/p y WW = 3 w1=8 w2=1 0.0 2017-12-07 17:47:00
1 2017-12-08 12:00:00 rrr = 0.6 y WW = 2 w1=2 w2=2 0.6 2017-12-08 12:20:00
1 2018-01-01 00:00:00 rrr = s/p y WW = 81 w1=8 w2=2 0.0 2018-01-01 00:01:00
1 2018-01-01 00:00:00 rrr = s/p y WW = 81 w1=8 w2=2 0.0 2018-01-01 00:01:00
1 2018-02-20 12:00:00 rrr = 1.1 y WW = 2 w1=2 w2=2 1.1 2018-02-20 12:18:00
1 2018-04-21 12:00:00 rrr = 1.0 y WW = 1 w1=2 w2=2 1.0 2018-04-21 12:42:00
1 2018-05-01 00:00:00 rrr = 3.0 y WW = 2 w1=2 w2=1 3.0 2018-05-01 00:04:00
1 2018-05-06 12:00:00 rrr = 1.0 y WW = 2 w1=0 w2=0 1.0 2018-05-06 12:16:00
1 2018-05-06 18:00:00 rrr = 0.2 y WW = 2 w1=2 w2=1 0.2 2018-05-07 03:20:00
1 2018-05-07 12:00:00 rrr = 0.3 y WW = 3 w1=2 w2=1 0.3 2018-05-07 11:55:00
1 2018-05-09 12:00:00 rrr = 1.0 y WW = 2 w1=0 w2=0 1.0 2018-05-09 12:08:00
1 2018-05-10 12:00:00 rrr = s/p y WW = 3 w1=8 w2=0 0.0 2018-05-10 11:42:00
1 2018-05-14 12:00:00 rrr = s/p y WW = 3 w1=8 w2=2 0.0 2018-05-14 12:36:00
1 2018-05-16 00:00:00 rrr = trazas y WW = 2 w1=2 w2=2 0.0 2018-05-15 23:59:00
1 2018-05-22 18:00:00 rrr = trazas y WW = 2 w1=2 w2=2 0.0 2018-05-22 20:14:00
1 2018-06-09 12:00:00 rrr = 0.2 y WW = 2 w1=0 w2=0 0.2 2018-06-09 12:27:00
1 2018-06-10 00:00:00 rrr = 0.2 y WW = 1 w1=2 w2=2 0.2 2018-06-10 00:07:00
1 2018-06-10 12:00:00 rrr = 1.0 y WW = 2 w1=0 w2=0 1.0 2018-06-10 12:13:00
1 2018-06-24 12:00:00 rrr = 0.3 y WW = 1 w1=2 w2=1 0.3 2018-06-24 12:08:00
1 2018-06-25 12:00:00 rrr = 0.3 y WW = 2 w1=2 w2=2 0.3 2018-06-25 12:25:00
1 2018-06-27 12:00:00 rrr = 0.2 y WW = 2 w1=2 w2=2 0.2 2018-06-27 12:04:00
1 2018-06-28 18:00:00 rrr = s/p y WW = 2 w1=5 w2=5 0.0 2018-06-28 20:12:00
1 2018-07-01 06:00:00 rrr = 2.0 y WW = 1 w1=0 w2=0 2.0 2018-07-24 20:24:00
1 2018-07-06 12:00:00 rrr = 3.0 y WW = 2 w1=0 w2=0 3.0 2018-07-06 12:35:00
1 2018-07-14 00:00:00 rrr = s/p y WW = 20 w1=5 w2=5 0.0 2018-07-14 00:30:00
1 2018-07-14 12:00:00 rrr = 2.4 y WW = 1 w1=1 w2=1 2.4 2018-07-14 12:15:00
1 2018-07-22 18:00:00 rrr = 0.2 y WW = 1 w1=2 w2=2 0.2 2018-07-22 17:54:00
1 2018-07-23 12:00:00 rrr = 0.2 y WW = 2 w1=2 w2=2 0.2 2018-07-23 12:06:00
1 2018-08-31 00:00:00 rrr = 1.0 y WW = 2 w1=2 w2=2 1.0 2018-08-31 00:01:00
1 2018-08-31 12:00:00 rrr = 0.4 y WW = 2 w1=0 w2=0 0.4 2018-08-31 12:03:00
1 2018-12-02 12:00:00 rrr = 3.0 y WW = 2 w1=2 w2=2 3.0 2018-12-02 13:09:00
1 2019-01-06 18:00:00 rrr = s/p y WW = 2 w1=5 w2=0 0.0 2019-01-06 18:13:00
1 2019-01-31 12:00:00 rrr = 0.2 y WW = 2 w1=2 w2=2 0.2 2019-01-31 12:00:00
1 2019-02-17 12:00:00 rrr = s/p y WW = 51 w1=2 w2=2 0.0 2019-02-17 12:24:00
1 2019-02-18 00:00:00 rrr = s/p y WW = 51 w1=5 w2=2 0.0 2019-02-18 00:15:00
1 2019-02-18 06:00:00 rrr = s/p y WW = 51 w1=5 w2=5 0.0 2019-02-18 11:55:00
1 2019-02-18 18:00:00 rrr = s/p y WW = 2 w1=5 w2=2 0.0 2019-02-18 17:55:00
1 2019-02-26 18:00:00 rrr = s/p y WW = 2 w1=8 w2=2 0.0 2019-02-26 17:57:00
1 2019-03-08 12:00:00 rrr = s/p y WW = 2 w1=8 w2=2 0.0 2019-03-08 12:07:00
1 2019-03-08 18:00:00 rrr = s/p y WW = 51 w1=5 w2=2 0.0 2019-03-08 17:53:00
1 2019-03-14 18:00:00 rrr = 2.0 y WW = 2 w1=2 w2=2 2.0 2019-03-14 17:55:00
1 2019-03-18 18:00:00 rrr = trazas y WW = 1 w1=2 w2=2 0.0 2019-03-18 18:14:00
1 2019-03-26 12:00:00 rrr = s/p y WW = 51 w1=2 w2=2 0.0 2019-03-26 11:45:00
1 2019-04-10 12:00:00 rrr = 0.2 y WW = 1 w1=2 w2=2 0.2 2019-04-10 12:09:00
1 2019-04-28 18:00:00 rrr = s/p y WW = 3 w1=5 w2=2 0.0 2019-04-28 18:19:00
1 2019-05-12 12:00:00 rrr = s/p y WW = 2 w1=8 w2=2 0.0 2019-05-12 15:13:00
1 2019-05-16 12:00:00 rrr = s/p y WW = 1 w1=8 w2=1 0.0 2019-05-16 12:50:00
1 2019-05-17 12:00:00 rrr = 0.3 y WW = 2 w1=2 w2=2 0.3 2019-05-17 14:13:00
1 2019-05-26 12:00:00 rrr = 0.2 y WW = 1 w1=2 w2=2 0.2 2019-05-26 12:05:00
1 2019-05-30 12:00:00 rrr = 1.0 y WW = 2 w1=0 w2=0 1.0 2019-05-30 12:20:00
1 2019-06-10 00:00:00 rrr = 0.4 y WW = 2 w1=2 w2=2 0.4 2019-06-09 23:51:00
1 2019-07-28 06:00:00 rrr = s/p y WW = 2 w1=5 w2=2 0.0 2019-07-28 15:14:00
1 2019-07-28 12:00:00 rrr = s/p y WW = 2 w1=8 w2=5 0.0 2019-07-28 15:18:00
1 2019-08-23 06:00:00 rrr = s/p y WW = 51 w1=5 w2=5 0.0 2019-08-23 12:01:00
1 2019-09-07 00:00:00 rrr = 0.4 y WW = 2 w1=2 w2=2 0.4 2019-09-06 23:59:00
1 2019-11-13 06:00:00 rrr = trazas y WW = 2 w1=2 w2=2 0.0 2019-11-13 12:03:00
1 2019-11-18 12:00:00 rrr = s/p y WW = 2 w1=5 w2=5 0.0 2019-11-18 11:53:00
1 2019-11-26 06:00:00 rrr = s/p y WW = 2 w1=7 w2=1 0.0 2019-11-26 12:06:00
1 2019-11-28 06:00:00 rrr = trazas y WW = 2 w1=2 w2=2 0.0 2019-11-28 11:55:00
1 2019-12-20 00:00:00 rrr = trazas y WW = 2 w1=2 w2=2 0.0 2019-12-20 00:06:00
1 2020-03-26 18:00:00 rrr = trazas y WW = 2 w1=2 w2=2 0.0 2020-03-26 18:17:00
1 2020-04-23 18:00:00 rrr = s/p y WW = 2 w1=8 w2=2 0.0 2020-04-23 18:25:00
1 2020-05-04 18:00:00 rrr = s/p y WW = 2 w1=8 w2=2 0.0 2020-05-04 18:29:00
1 2020-05-09 00:00:00 rrr = trazas y WW = 2 w1=2 w2=2 0.0 2020-05-09 00:46:00
1 2020-05-09 12:00:00 rrr = trazas y WW = 2 w1=2 w2=2 0.0 2020-05-09 11:54:00
1 2020-05-10 12:00:00 rrr = s/p y WW = 2 w1=8 w2=2 0.0 2020-05-10 12:55:00
1 2020-05-19 06:00:00 rrr = s/p y WW = 2 w1=5 w2=2 0.0 2020-05-19 12:33:00
1 2020-05-19 18:00:00 rrr = s/p y WW = 1 w1=5 w2=2 0.0 2020-05-19 18:07:00
1 2020-05-20 12:00:00 rrr = s/p y WW = 80 w1=8 w2=2 0.0 2020-05-20 12:55:00
1 2020-05-20 18:00:00 rrr = trazas y WW = 2 w1=2 w2=2 0.0 2020-05-20 18:11:00
1 2020-05-21 12:00:00 rrr = 0.6 y WW = 1 w1=2 w2=1 0.6 2020-05-21 13:58:00
1 2020-05-26 12:00:00 rrr = trazas y WW = 2 w1=2 w2=2 0.0 2020-05-26 12:27:00
1 2020-05-28 18:00:00 rrr = s/p y WW = 1 w1=8 w2=2 0.0 2020-05-28 18:10:00
1 2020-05-29 00:00:00 rrr = s/p y WW = 25 w1=8 w2=2 0.0 2020-05-29 00:32:00
1 2020-05-31 00:00:00 rrr = s/p y WW = 1 w1=8 w2=2 0.0 2020-05-31 00:38:00
1 2020-05-31 06:00:00 rrr = s/p y WW = 80 w1=8 w2=8 0.0 2020-05-31 13:28:00
1 2020-06-16 12:00:00 rrr = 0.4 y WW = 1 w1=2 w2=1 0.4 2020-06-16 12:10:00
1 2020-06-24 00:00:00 rrr = trazas y WW = 2 w1=2 w2=2 0.0 2020-06-24 00:01:00
1 2020-08-03 12:00:00 rrr = s/p y WW = 50 w1=8 w2=5 0.0 2020-08-03 12:36:00
1 2020-08-03 18:00:00 rrr = s/p y WW = 2 w1=5 w2=2 0.0 2020-08-03 18:30:00
1 2020-08-13 18:00:00 rrr = trazas y WW = 2 w1=2 w2=2 0.0 2020-08-13 18:06:00
1 2020-08-24 06:00:00 rrr = s/p y WW = 80 w1=8 w2=8 0.0 2020-08-24 12:40:00
1 2020-12-27 06:00:00 rrr = trazas y WW = 2 w1=2 w2=2 0.0 2020-12-27 12:08:00
1 2021-03-21 00:00:00 rrr = trazas y WW = 2 w1=0 w2=0 0.0 2021-03-21 00:03:00
1 2021-06-03 18:00:00 rrr = s/p y WW = 2 w1=5 w2=2 0.0 2021-06-03 17:58:00
1 2021-07-23 12:00:00 rrr = 0.8 y WW = 1 w1=2 w2=2 0.8 2021-07-23 14:50:00
1 2021-07-26 12:00:00 rrr = 1.0 y WW = 1 w1=2 w2=2 1.0 2021-07-26 12:47:00
1 2021-08-18 12:00:00 rrr = s/p y WW = 10 w1=5 w2=4 0.0 2021-08-18 14:04:00
1 2021-11-07 06:00:00 rrr = trazas y WW = 2 w1=2 w2=2 0.0 2021-11-07 12:14:00
1 2021-11-10 12:00:00 rrr = s/p y WW = 10 w1=5 w2=2 0.0 2021-11-10 12:13:00
1 2022-03-10 12:00:00 rrr = 0.2 y WW = 2 w1=2 w2=2 0.2 2022-03-10 12:25:00
1 2022-03-22 12:00:00 rrr = trazas y WW = 2 w1=2 w2=2 0.0 2022-03-22 12:27:00
1 2022-04-27 12:00:00 rrr = 0.1 y WW = 3 w1=1 w2=1 0.1 2022-04-27 12:28:00
1 2022-04-28 12:00:00 rrr = 0.1 y WW = 3 w1=2 w2=2 0.1 2022-04-28 12:41:00
1 2022-06-22 12:00:00 rrr = 3.2 y WW = 3 w1=1 w2=0 3.2 2022-06-22 12:37:00
1 2023-03-07 12:00:00 rrr = 0.4 y WW = 2 w1=2 w2=2 0.4 2023-03-07 12:17:00
1 2023-09-03 12:00:00 rrr = s/p y WW = 1 w1=8 w2=2 0.0 2023-09-03 12:24:00
1 2023-09-29 12:00:00 rrr = 0.2 y WW = 2 w1=2 w2=2 0.2 2023-09-29 11:59:00
1 2023-11-19 06:00:00 rrr = 0.2 y WW = 2 w1=2 w2=2 0.2 2023-11-19 12:12:00
1 2023-11-19 12:00:00 rrr = 0.2 y WW = 1 w1=2 w2=2 0.2 2023-11-19 12:10:00
1 2024-01-10 15:00:00 qfe debe ser menor o igual a qff 1016.0 - 1012.0 2024-01-10 15:02:00
1 2024-01-23 06:00:00 qfe debe ser menor o igual a qff 1013.0 - 1011.0 2024-01-23 12:24:00
Errores del Nivel 164
Nivel Fecha del Dato Descripción Información Error Fecha Ingreso
2 2016-09-22 15:00:00 Variación Tri-horaria de Intensidad del viento fuera de rango (3 hora Antes) 123 - 13 2016-09-22 18:35:00
2 2016-09-22 18:00:00 Variación Tri-horaria de Intensidad del viento fuera de rango (3 hora Antes) 10 - 123 2016-09-22 18:36:00
2 2020-12-30 12:00:00 Variación Tri-horaria de Intensidad del viento fuera de rango (3 hora Antes) 119 - 16 2020-12-30 12:52:00
2 2020-12-30 15:00:00 Variación Tri-horaria de Intensidad del viento fuera de rango (3 hora Antes) 12 - 119 2020-12-30 17:57:00
2 2021-11-17 18:00:00 Variación Tri-horaria de Intensidad del viento fuera de rango (3 hora Antes) 150 - 15 2021-11-17 17:40:00
2 2021-11-17 21:00:00 Variación Tri-horaria de Intensidad del viento fuera de rango (3 hora Antes) 16 - 150 2021-11-17 20:52:00
2 2016-09-05 00:00:00 Temperatura 20.7 del 04-09-2016 18:00, Mayor que la Máxima 18.4 05-09-2016 00:00 20.7 -- 18.4 2016-09-05 00:08:00
2 2017-06-08 00:00:00 Temperatura 19.8 del 07-06-2017 18:00, Mayor que la Máxima 19.6 08-06-2017 00:00 19.8 -- 19.6 2017-07-05 15:35:00
2 2017-06-10 00:00:00 Temperatura 19.3 del 09-06-2017 18:00, Mayor que la Máxima 18.7 10-06-2017 00:00 19.3 -- 18.7 2017-07-06 18:25:00
2 2018-05-11 00:00:00 Temperatura 20.6 del 10-05-2018 21:00, Mayor que la Máxima 20.5 11-05-2018 00:00 20.6 -- 20.5 2018-05-11 00:18:00
2 2020-12-30 00:00:00 Temperatura 20.7 del 29-12-2020 21:00, Mayor que la Máxima 20.3 30-12-2020 00:00 20.7 -- 20.3 2020-12-30 00:36:00
2 2021-05-07 00:00:00 Temperatura 20.7 del 06-05-2021 18:00, Mayor que la Máxima 20.1 07-05-2021 00:00 20.7 -- 20.1 2021-05-06 23:55:00
2 2021-06-16 00:00:00 Temperatura 18.6 del 15-06-2021 18:00, Mayor que la Máxima 18.4 16-06-2021 00:00 18.6 -- 18.4 2021-06-16 01:10:00
2 2021-08-16 00:00:00 Temperatura 17.7 del 15-08-2021 21:00, Mayor que la Máxima 17.2 16-08-2021 00:00 17.7 -- 17.2 2021-08-16 00:01:00
2 2022-04-02 00:00:00 Temperatura 20.6 del 01-04-2022 18:00, Mayor que la Máxima 18.7 02-04-2022 00:00 20.6 -- 18.7 2022-04-02 00:13:00
2 2022-12-12 00:00:00 Temperatura 22.2 del 11-12-2022 18:00, Mayor que la Máxima 20.2 12-12-2022 00:00 22.2 -- 20.2 2022-12-12 00:27:00
2 2022-12-31 00:00:00 Temperatura 22.5 del 30-12-2022 18:00, Mayor que la Máxima 21.9 31-12-2022 00:00 22.5 -- 21.9 2022-12-31 03:23:00
2 2023-04-05 00:00:00 Temperatura 22.0 del 04-04-2023 18:00, Mayor que la Máxima 21.7 05-04-2023 00:00 22.0 -- 21.7 2023-04-05 00:15:00
2 2023-05-06 00:00:00 Temperatura 21.8 del 05-05-2023 18:00, Mayor que la Máxima 21.2 06-05-2023 00:00 21.8 -- 21.2 2023-05-05 23:51:00
2 2023-05-20 00:00:00 Temperatura 20.7 del 19-05-2023 18:00, Mayor que la Máxima 20.4 20-05-2023 00:00 20.7 -- 20.4 2023-05-20 15:20:00
2 2024-01-09 00:00:00 Temperatura 24.1 del 08-01-2024 18:00, Mayor que la Máxima 22.8 09-01-2024 00:00 24.1 -- 22.8 2024-01-09 01:22:00
2 2018-06-30 12:00:00 Temperatura 15.1 del 30-06-2018 03:00, Menor que la Mínima 15.4 30-06-2018 12:00 15.1 -- 15.4 2018-06-30 12:09:00
2 2018-07-03 12:00:00 Temperatura 15.9 del 03-07-2018 06:00, Menor que la Mínima 16.4 03-07-2018 12:00 15.9 -- 16.4 2018-07-03 12:00:00
2 2018-07-14 12:00:00 Temperatura 15.7 del 14-07-2018 06:00, Menor que la Mínima 15.8 14-07-2018 12:00 15.7 -- 15.8 2018-07-14 12:15:00
2 2018-07-27 12:00:00 Temperatura 14.9 del 27-07-2018 03:00, Menor que la Mínima 15.2 27-07-2018 12:00 14.9 -- 15.2 2018-07-27 12:10:00
2 2018-08-01 12:00:00 Temperatura 13.7 del 01-08-2018 03:00, Menor que la Mínima 13.8 01-08-2018 12:00 13.7 -- 13.8 2018-08-01 12:05:00
2 2019-10-16 12:00:00 Temperatura 14.6 del 16-10-2019 09:00, Menor que la Mínima 14.7 16-10-2019 12:00 14.6 -- 14.7 2019-10-16 11:59:00
2 2021-01-05 12:00:00 Temperatura 17.0 del 05-01-2021 09:00, Menor que la Mínima 17.5 05-01-2021 12:00 17.0 -- 17.5 2021-01-05 12:23:00
2 2021-03-09 12:00:00 Temperatura 17.9 del 09-03-2021 09:00, Menor que la Mínima 18.2 09-03-2021 12:00 17.9 -- 18.2 2021-03-09 12:43:00
2 2021-05-04 12:00:00 Temperatura 16.9 del 04-05-2021 03:00, Menor que la Mínima 17.1 04-05-2021 12:00 16.9 -- 17.1 2021-05-04 12:24:00
2 2021-06-09 12:00:00 Temperatura 16.0 del 09-06-2021 03:00, Menor que la Mínima 16.1 09-06-2021 12:00 16.0 -- 16.1 2021-06-09 12:54:00
2 2021-09-18 12:00:00 Temperatura 14.3 del 18-09-2021 03:00, Menor que la Mínima 14.4 18-09-2021 12:00 14.3 -- 14.4 2021-09-18 12:05:00
2 2021-12-04 12:00:00 Temperatura 15.1 del 04-12-2021 09:00, Menor que la Mínima 15.9 04-12-2021 12:00 15.1 -- 15.9 2021-12-04 11:53:00
2 2022-03-28 12:00:00 Temperatura 17.8 del 28-03-2022 06:00, Menor que la Mínima 18.4 28-03-2022 12:00 17.8 -- 18.4 2022-03-28 12:38:00
2 2022-06-21 12:00:00 Temperatura 16.6 del 21-06-2022 03:00, Menor que la Mínima 16.7 21-06-2022 12:00 16.6 -- 16.7 2022-06-21 14:02:00
2 2022-07-10 12:00:00 Temperatura 15.1 del 10-07-2022 03:00, Menor que la Mínima 15.8 10-07-2022 12:00 15.1 -- 15.8 2022-07-10 12:34:00
2 2022-07-13 12:00:00 Temperatura 14.0 del 13-07-2022 09:00, Menor que la Mínima 14.1 13-07-2022 12:00 14.0 -- 14.1 2022-07-13 12:50:00
2 2022-07-21 12:00:00 Temperatura 13.9 del 21-07-2022 03:00, Menor que la Mínima 14.2 21-07-2022 12:00 13.9 -- 14.2 2022-07-21 12:35:00
2 2022-07-25 12:00:00 Temperatura 14.5 del 25-07-2022 06:00, Menor que la Mínima 14.6 25-07-2022 12:00 14.5 -- 14.6 2022-07-25 13:33:00
2 2022-08-01 12:00:00 Temperatura 13.4 del 01-08-2022 03:00, Menor que la Mínima 13.8 01-08-2022 12:00 13.4 -- 13.8 2022-08-01 12:19:00
2 2024-01-14 12:00:00 Temperatura 17.6 del 14-01-2024 09:00, Menor que la Mínima 17.8 14-01-2024 12:00 17.6 -- 17.8 2024-01-14 13:00:00
Errores del Nivel 41
Informe generado el 17-07-2024 14:28
Requerimiento: RE6001